sensor_id;sensor_type;location;lat;lon;timestamp;pressure;altitude;pressure_sealevel;temperature;humidity
14253;BME280;7210;51.502;10.722;2023-12-22T15:34:48;97702.41;;;5.73;100.00
14253;BME280;7210;51.502;10.722;2023-12-22T15:37:16;97708.94;;;5.70;100.00
14253;BME280;7210;51.502;10.722;2023-12-22T15:39:44;97706.00;;;5.67;100.00
14253;BME280;7210;51.502;10.722;2023-12-22T15:42:12;97695.47;;;5.62;100.00
14253;BME280;7210;51.502;10.722;2023-12-22T15:44:42;97701.66;;;5.56;100.00
14253;BME280;7210;51.502;10.722;2023-12-22T15:47:09;97703.66;;;5.49;100.00
14253;BME280;7210;51.502;10.722;2023-12-22T15:50:05;97703.09;;;5.47;100.00
14253;BME280;7210;51.502;10.722;2023-12-22T15:52:39;97678.81;;;5.35;100.00
14253;BME280;7210;51.502;10.722;2023-12-22T15:55:08;97698.97;;;5.34;100.00
14253;BME280;7210;51.502;10.722;2023-12-22T15:57:40;97688.50;;;5.34;100.00
14253;BME280;7210;51.502;10.722;2023-12-22T16:00:10;97688.22;;;5.31;100.00
14253;BME280;7210;51.502;10.722;2023-12-22T16:02:52;97680.50;;;5.24;100.00
14253;BME280;7210;51.502;10.722;2023-12-22T16:05:24;97680.25;;;5.26;100.00
14253;BME280;7210;51.502;10.722;2023-12-22T16:07:57;97672.19;;;5.27;100.00
14253;BME280;7210;51.502;10.722;2023-12-22T16:10:33;97662.38;;;5.23;100.00
14253;BME280;7210;51.502;10.722;2023-12-22T16:13:11;97670.25;;;5.23;100.00
14253;BME280;7210;51.502;10.722;2023-12-22T16:15:39;97666.63;;;5.24;100.00
14253;BME280;7210;51.502;10.722;2023-12-22T16:18:32;97659.78;;;5.23;100.00
14253;BME280;7210;51.502;10.722;2023-12-22T16:21:05;97660.81;;;5.22;100.00
14253;BME280;7210;51.502;10.722;2023-12-22T16:23:33;97667.72;;;5.28;100.00
14253;BME280;7210;51.502;10.722;2023-12-22T16:26:00;97654.16;;;5.31;100.00
14253;BME280;7210;51.502;10.722;2023-12-22T16:28:33;97646.28;;;5.31;100.00
14253;BME280;7210;51.502;10.722;2023-12-22T16:31:03;97611.47;;;5.14;100.00
14253;BME280;7210;51.502;10.722;2023-12-22T16:33:39;97644.69;;;5.30;100.00
14253;BME280;7210;51.502;10.722;2023-12-22T16:36:10;97627.66;;;5.27;100.00
14253;BME280;7210;51.502;10.722;2023-12-22T16:38:37;97626.63;;;5.28;100.00
14253;BME280;7210;51.502;10.722;2023-12-22T16:41:09;97632.16;;;5.32;100.00
14253;BME280;7210;51.502;10.722;2023-12-22T16:43:51;97610.63;;;5.30;100.00
14253;BME280;7210;51.502;10.722;2023-12-22T16:46:27;97624.78;;;5.29;100.00
14253;BME280;7210;51.502;10.722;2023-12-22T16:48:57;97616.13;;;5.28;100.00
14253;BME280;7210;51.502;10.722;2023-12-22T16:51:25;97610.59;;;5.25;100.00
14253;BME280;7210;51.502;10.722;2023-12-22T16:54:03;97608.75;;;5.25;100.00
14253;BME280;7210;51.502;10.722;2023-12-22T16:56:30;97599.00;;;5.21;100.00
14253;BME280;7210;51.502;10.722;2023-12-22T16:59:03;97604.84;;;5.28;100.00
14253;BME280;7210;51.502;10.722;2023-12-22T17:01:30;97603.59;;;5.30;100.00
14253;BME280;7210;51.502;10.722;2023-12-22T17:03:57;97609.38;;;5.32;100.00
14253;BME280;7210;51.502;10.722;2023-12-22T17:06:28;97620.69;;;5.38;100.00
14253;BME280;7210;51.502;10.722;2023-12-22T17:09:03;97595.63;;;5.42;100.00
14253;BME280;7210;51.502;10.722;2023-12-22T17:11:33;97617.19;;;5.49;100.00
14253;BME280;7210;51.502;10.722;2023-12-22T17:14:03;97599.69;;;5.54;100.00
14253;BME280;7210;51.502;10.722;2023-12-22T17:16:39;97618.41;;;5.63;100.00
14253;BME280;7210;51.502;10.722;2023-12-22T17:19:09;97611.41;;;5.68;100.00
14253;BME280;7210;51.502;10.722;2023-12-22T17:21:38;97606.16;;;5.68;100.00
14253;BME280;7210;51.502;10.722;2023-12-22T17:24:08;97610.44;;;5.74;100.00
14253;BME280;7210;51.502;10.722;2023-12-22T17:26:35;97607.56;;;5.76;100.00
14253;BME280;7210;51.502;10.722;2023-12-22T17:29:09;97603.88;;;5.77;100.00
14253;BME280;7210;51.502;10.722;2023-12-22T17:31:45;97611.63;;;5.83;100.00
14253;BME280;7210;51.502;10.722;2023-12-22T17:34:12;97610.06;;;5.87;100.00
14253;BME280;7210;51.502;10.722;2023-12-22T17:36:46;97587.81;;;5.90;100.00
14253;BME280;7210;51.502;10.722;2023-12-22T17:39:15;97574.19;;;5.88;100.00
14253;BME280;7210;51.502;10.722;2023-12-22T17:42:02;97574.19;;;5.88;100.00
14253;BME280;7210;51.502;10.722;2023-12-22T17:44:39;97585.13;;;5.85;100.00
14253;BME280;7210;51.502;10.722;2023-12-22T17:47:15;97598.84;;;5.92;100.00
14253;BME280;7210;51.502;10.722;2023-12-22T17:49:42;97581.84;;;5.94;100.00
14253;BME280;7210;51.502;10.722;2023-12-22T17:52:16;97592.69;;;6.03;100.00
14253;BME280;7210;51.502;10.722;2023-12-22T17:54:45;97607.63;;;6.02;100.00
14253;BME280;7210;51.502;10.722;2023-12-22T17:57:15;97623.34;;;6.02;100.00
14253;BME280;7210;51.502;10.722;2023-12-22T17:59:42;97602.69;;;6.06;100.00
14253;BME280;7210;51.502;10.722;2023-12-22T18:02:27;97616.53;;;6.01;100.00
14253;BME280;7210;51.502;10.722;2023-12-22T18:04:54;97610.00;;;6.04;100.00
14253;BME280;7210;51.502;10.722;2023-12-22T18:07:23;97595.34;;;6.08;100.00
14253;BME280;7210;51.502;10.722;2023-12-22T18:09:51;97569.00;;;5.93;100.00
14253;BME280;7210;51.502;10.722;2023-12-22T18:12:18;97599.81;;;6.07;100.00
14253;BME280;7210;51.502;10.722;2023-12-22T18:14:57;97607.75;;;6.12;100.00
14253;BME280;7210;51.502;10.722;2023-12-22T18:17:27;97595.66;;;6.11;100.00
14253;BME280;7210;51.502;10.722;2023-12-22T18:19:57;97596.16;;;6.08;100.00
14253;BME280;7210;51.502;10.722;2023-12-22T18:22:46;97584.09;;;6.07;100.00
14253;BME280;7210;51.502;10.722;2023-12-22T18:25:27;97585.34;;;6.05;100.00
14253;BME280;7210;51.502;10.722;2023-12-22T18:28:04;97564.38;;;6.05;100.00
14253;BME280;7210;51.502;10.722;2023-12-22T18:30:45;97581.66;;;6.01;100.00
14253;BME280;7210;51.502;10.722;2023-12-22T18:33:21;97579.50;;;5.98;100.00
14253;BME280;7210;51.502;10.722;2023-12-22T18:35:52;97575.84;;;5.99;100.00
14253;BME280;7210;51.502;10.722;2023-12-22T18:38:28;97569.31;;;6.01;100.00
14253;BME280;7210;51.502;10.722;2023-12-22T18:40:55;97580.13;;;6.05;100.00
14253;BME280;7210;51.502;10.722;2023-12-22T18:43:33;97589.13;;;6.14;100.00
14253;BME280;7210;51.502;10.722;2023-12-22T18:46:00;97580.50;;;6.18;100.00
14253;BME280;7210;51.502;10.722;2023-12-22T18:48:41;97591.81;;;6.19;100.00
14253;BME280;7210;51.502;10.722;2023-12-22T18:51:12;97583.69;;;6.20;100.00
14253;BME280;7210;51.502;10.722;2023-12-22T18:53:41;97606.25;;;6.21;100.00
14253;BME280;7210;51.502;10.722;2023-12-22T18:56:21;97606.06;;;6.28;100.00
14253;BME280;7210;51.502;10.722;2023-12-22T18:58:51;97585.56;;;6.25;100.00
14253;BME280;7210;51.502;10.722;2023-12-22T19:01:38;97612.44;;;6.37;100.00
14253;BME280;7210;51.502;10.722;2023-12-22T19:04:09;97602.47;;;6.39;100.00
14253;BME280;7210;51.502;10.722;2023-12-22T19:06:39;97599.38;;;6.42;100.00
14253;BME280;7210;51.502;10.722;2023-12-22T19:09:10;97566.03;;;6.42;100.00
14253;BME280;7210;51.502;10.722;2023-12-22T19:11:37;97560.00;;;6.42;100.00
14253;BME280;7210;51.502;10.722;2023-12-22T19:14:09;97554.16;;;6.35;100.00
14253;BME280;7210;51.502;10.722;2023-12-22T19:16:36;97563.31;;;6.32;100.00
14253;BME280;7210;51.502;10.722;2023-12-22T19:19:15;97582.53;;;6.38;100.00
14253;BME280;7210;51.502;10.722;2023-12-22T19:21:42;97596.75;;;6.42;100.00
14253;BME280;7210;51.502;10.722;2023-12-22T19:24:11;97586.28;;;6.47;100.00
14253;BME280;7210;51.502;10.722;2023-12-22T19:26:38;97614.38;;;6.46;99.98
14253;BME280;7210;51.502;10.722;2023-12-22T19:29:32;97612.06;;;6.55;99.39
14253;BME280;7210;51.502;10.722;2023-12-22T19:31:59;97610.47;;;6.49;98.99
14253;BME280;7210;51.502;10.722;2023-12-22T19:34:26;97639.13;;;6.55;98.35
14253;BME280;7210;51.502;10.722;2023-12-22T19:37:14;97643.53;;;6.50;98.05
14253;BME280;7210;51.502;10.722;2023-12-22T19:39:46;97645.56;;;6.43;98.23
14253;BME280;7210;51.502;10.722;2023-12-22T19:42:13;97655.31;;;6.47;97.90
14253;BME280;7210;51.502;10.722;2023-12-22T19:44:41;97685.00;;;6.53;97.66
14253;BME280;7210;51.502;10.722;2023-12-22T19:47:08;97690.31;;;6.58;97.17
14253;BME280;7210;51.502;10.722;2023-12-22T19:49:51;97685.56;;;6.55;96.70
14253;BME280;7210;51.502;10.722;2023-12-22T19:52:18;97673.97;;;6.51;96.61
14253;BME280;7210;51.502;10.722;2023-12-22T19:54:52;97690.25;;;6.53;96.52
14253;BME280;7210;51.502;10.722;2023-12-22T19:57:20;97694.13;;;6.45;96.43
14253;BME280;7210;51.502;10.722;2023-12-22T19:59:47;97690.06;;;6.33;96.59
14253;BME280;7210;51.502;10.722;2023-12-22T20:02:15;97684.47;;;6.24;96.48
14253;BME280;7210;51.502;10.722;2023-12-22T20:05:20;97709.84;;;6.19;96.54
14253;BME280;7210;51.502;10.722;2023-12-22T20:07:57;97703.91;;;6.07;96.50
14253;BME280;7210;51.502;10.722;2023-12-22T20:10:26;97722.84;;;6.09;96.77
14253;BME280;7210;51.502;10.722;2023-12-22T20:13:09;97720.47;;;6.07;96.79
14253;BME280;7210;51.502;10.722;2023-12-22T20:15:39;97738.75;;;6.02;96.93
14253;BME280;7210;51.502;10.722;2023-12-22T20:18:27;97747.66;;;6.01;97.66
14253;BME280;7210;51.502;10.722;2023-12-22T20:20:57;97770.53;;;6.06;97.33
14253;BME280;7210;51.502;10.722;2023-12-22T20:23:27;97768.94;;;6.05;97.32
14253;BME280;7210;51.502;10.722;2023-12-22T20:25:58;97764.50;;;6.05;97.20
14253;BME280;7210;51.502;10.722;2023-12-22T20:28:26;97776.31;;;6.08;97.31
14253;BME280;7210;51.502;10.722;2023-12-22T20:31:03;97785.84;;;6.14;96.91
14253;BME280;7210;51.502;10.722;2023-12-22T20:33:31;97772.19;;;6.12;96.67
14253;BME280;7210;51.502;10.722;2023-12-22T20:35:59;97791.59;;;6.11;96.84
14253;BME280;7210;51.502;10.722;2023-12-22T20:38:33;97794.53;;;6.14;96.73
14253;BME280;7210;51.502;10.722;2023-12-22T20:41:02;97786.88;;;6.13;96.82
14253;BME280;7210;51.502;10.722;2023-12-22T20:43:30;97826.31;;;6.18;96.53
14253;BME280;7210;51.502;10.722;2023-12-22T20:46:09;97823.41;;;6.19;96.39
14253;BME280;7210;51.502;10.722;2023-12-22T20:48:39;97840.94;;;6.14;96.63
14253;BME280;7210;51.502;10.722;2023-12-22T20:51:07;97837.84;;;6.17;96.80
14253;BME280;7210;51.502;10.722;2023-12-22T20:53:45;97847.75;;;6.15;96.27
14253;BME280;7210;51.502;10.722;2023-12-22T20:56:21;97858.34;;;6.20;96.46
14253;BME280;7210;51.502;10.722;2023-12-22T20:58:50;97869.88;;;6.19;96.09
14253;BME280;7210;51.502;10.722;2023-12-22T21:01:17;97859.22;;;6.09;96.19
14253;BME280;7210;51.502;10.722;2023-12-22T21:03:45;97887.06;;;6.10;96.63
14253;BME280;7210;51.502;10.722;2023-12-22T21:06:27;97882.84;;;6.09;96.48
14253;BME280;7210;51.502;10.722;2023-12-22T21:08:54;97888.00;;;6.04;96.63
14253;BME280;7210;51.502;10.722;2023-12-22T21:11:29;97880.72;;;5.89;97.07
14253;BME280;7210;51.502;10.722;2023-12-22T21:13:57;97889.13;;;5.91;96.89
14253;BME280;7210;51.502;10.722;2023-12-22T21:16:43;97889.44;;;5.95;96.37
14253;BME280;7210;51.502;10.722;2023-12-22T21:19:11;97903.91;;;5.97;96.12
14253;BME280;7210;51.502;10.722;2023-12-22T21:21:51;97912.97;;;6.06;95.87
14253;BME280;7210;51.502;10.722;2023-12-22T21:24:33;97892.94;;;6.00;96.21
14253;BME280;7210;51.502;10.722;2023-12-22T21:27:04;97905.41;;;5.93;96.57
14253;BME280;7210;51.502;10.722;2023-12-22T21:29:45;97905.63;;;5.92;96.50
14253;BME280;7210;51.502;10.722;2023-12-22T21:32:12;97905.63;;;5.92;96.30
14253;BME280;7210;51.502;10.722;2023-12-22T21:34:40;97914.53;;;5.91;96.28
14253;BME280;7210;51.502;10.722;2023-12-22T21:37:07;97918.84;;;5.97;96.27
14253;BME280;7210;51.502;10.722;2023-12-22T21:39:34;97903.28;;;5.90;95.84
14253;BME280;7210;51.502;10.722;2023-12-22T21:42:10;97903.59;;;5.94;95.63
14253;BME280;7210;51.502;10.722;2023-12-22T21:44:51;97890.72;;;5.92;95.21
14253;BME280;7210;51.502;10.722;2023-12-22T21:47:18;97876.25;;;5.90;94.82
14253;BME280;7210;51.502;10.722;2023-12-22T21:50:03;97874.66;;;5.89;94.58
14253;BME280;7210;51.502;10.722;2023-12-22T21:52:33;97878.47;;;5.81;94.41
14253;BME280;7210;51.502;10.722;2023-12-22T21:55:04;97902.38;;;5.85;94.47
14253;BME280;7210;51.502;10.722;2023-12-22T21:57:32;97871.94;;;5.84;94.21
14253;BME280;7210;51.502;10.722;2023-12-22T22:00:00;97888.25;;;5.86;93.65
14253;BME280;7210;51.502;10.722;2023-12-22T22:02:39;97887.22;;;5.87;93.87
14253;BME280;7210;51.502;10.722;2023-12-22T22:05:06;97892.91;;;5.84;93.52
14253;BME280;7210;51.502;10.722;2023-12-22T22:07:33;97904.13;;;5.96;92.78
14253;BME280;7210;51.502;10.722;2023-12-22T22:10:15;97879.00;;;6.00;92.54
14253;BME280;7210;51.502;10.722;2023-12-22T22:12:52;97870.13;;;6.01;92.09
14253;BME280;7210;51.502;10.722;2023-12-22T22:15:21;97861.13;;;5.97;92.04
14253;BME280;7210;51.502;10.722;2023-12-22T22:18:08;97882.59;;;5.94;92.12
14253;BME280;7210;51.502;10.722;2023-12-22T22:20:36;97870.53;;;5.93;91.49
14253;BME280;7210;51.502;10.722;2023-12-22T22:23:09;97886.56;;;5.96;91.36
14253;BME280;7210;51.502;10.722;2023-12-22T22:26:26;97907.72;;;5.90;91.24
14253;BME280;7210;51.502;10.722;2023-12-22T22:28:54;97912.50;;;5.93;91.03
14253;BME280;7210;51.502;10.722;2023-12-22T22:31:27;97905.19;;;5.95;91.30
14253;BME280;7210;51.502;10.722;2023-12-22T22:34:03;97896.28;;;5.96;90.81
14253;BME280;7210;51.502;10.722;2023-12-22T22:36:33;97884.97;;;5.95;90.75
14253;BME280;7210;51.502;10.722;2023-12-22T22:39:09;97896.28;;;5.96;90.63
14253;BME280;7210;51.502;10.722;2023-12-22T22:41:45;97920.09;;;5.94;90.84
14253;BME280;7210;51.502;10.722;2023-12-22T22:44:28;97938.22;;;5.96;90.50
14253;BME280;7210;51.502;10.722;2023-12-22T22:46:57;97932.97;;;5.96;90.72
14253;BME280;7210;51.502;10.722;2023-12-22T22:49:27;97957.75;;;5.88;90.74
14253;BME280;7210;51.502;10.722;2023-12-22T22:51:57;97953.56;;;5.76;90.64
14253;BME280;7210;51.502;10.722;2023-12-22T22:54:24;97963.09;;;5.65;91.23
14253;BME280;7210;51.502;10.722;2023-12-22T22:56:51;97989.94;;;5.56;91.74
14253;BME280;7210;51.502;10.722;2023-12-22T22:59:21;98004.22;;;5.37;92.76
14253;BME280;7210;51.502;10.722;2023-12-22T23:01:58;98040.25;;;5.18;93.30
14253;BME280;7210;51.502;10.722;2023-12-22T23:04:33;98058.72;;;5.12;94.02
14253;BME280;7210;51.502;10.722;2023-12-22T23:07:03;98089.59;;;5.10;94.67
14253;BME280;7210;51.502;10.722;2023-12-22T23:09:33;98135.91;;;5.09;95.11
14253;BME280;7210;51.502;10.722;2023-12-22T23:12:09;98132.38;;;5.15;95.58
14253;BME280;7210;51.502;10.722;2023-12-22T23:14:51;98142.19;;;5.20;96.00
14253;BME280;7210;51.502;10.722;2023-12-22T23:17:22;98158.34;;;5.17;96.67
14253;BME280;7210;51.502;10.722;2023-12-22T23:19:57;98178.63;;;5.10;97.33
14253;BME280;7210;51.502;10.722;2023-12-22T23:22:33;98170.41;;;4.95;97.80
14253;BME280;7210;51.502;10.722;2023-12-22T23:25:00;98184.84;;;4.86;98.48
14253;BME280;7210;51.502;10.722;2023-12-22T23:27:29;98225.72;;;4.87;98.91
14253;BME280;7210;51.502;10.722;2023-12-22T23:29:57;98216.94;;;4.81;99.20
14253;BME280;7210;51.502;10.722;2023-12-22T23:32:28;98201.75;;;4.72;99.26
14253;BME280;7210;51.502;10.722;2023-12-22T23:34:57;98190.69;;;4.58;99.57
14253;BME280;7210;51.502;10.722;2023-12-22T23:37:27;98171.31;;;4.48;99.84
14253;BME280;7210;51.502;10.722;2023-12-22T23:39:57;98204.16;;;4.44;100.00
14253;BME280;7210;51.502;10.722;2023-12-22T23:42:44;98200.41;;;4.40;100.00
14253;BME280;7210;51.502;10.722;2023-12-22T23:45:21;98177.75;;;4.34;100.00
14253;BME280;7210;51.502;10.722;2023-12-22T23:47:58;98202.41;;;4.26;100.00
14253;BME280;7210;51.502;10.722;2023-12-22T23:50:27;98191.59;;;4.23;100.00
14253;BME280;7210;51.502;10.722;2023-12-22T23:52:57;98215.53;;;4.20;100.00
14253;BME280;7210;51.502;10.722;2023-12-22T23:55:24;98195.66;;;4.19;100.00
14253;BME280;7210;51.502;10.722;2023-12-22T23:57:51;98209.75;;;4.18;100.00
